sensor_id;sensor_type;location;lat;lon;timestamp;pressure;altitude;pressure_sealevel;temperature;humidity
77366;BME280;66430;50.182;11.704;2023-12-07T00:02:00;94646.38;;;4.45;41.31
77366;BME280;66430;50.182;11.704;2023-12-07T00:04:26;94647.49;;;4.16;40.97
77366;BME280;66430;50.182;11.704;2023-12-07T00:06:51;94646.96;;;3.89;41.35
77366;BME280;66430;50.182;11.704;2023-12-07T00:09:16;94649.01;;;3.85;41.32
77366;BME280;66430;50.182;11.704;2023-12-07T00:11:42;94655.07;;;4.02;41.36
77366;BME280;66430;50.182;11.704;2023-12-07T00:14:08;94655.44;;;3.69;41.89
77366;BME280;66430;50.182;11.704;2023-12-07T00:16:33;94655.42;;;4.00;41.30
77366;BME280;66430;50.182;11.704;2023-12-07T00:18:59;94655.16;;;3.86;41.40
77366;BME280;66430;50.182;11.704;2023-12-07T00:21:24;94658.76;;;4.39;41.65
77366;BME280;66430;50.182;11.704;2023-12-07T00:23:49;94662.28;;;3.21;42.68
77366;BME280;66430;50.182;11.704;2023-12-07T00:26:15;94658.12;;;4.57;41.22
77366;BME280;66430;50.182;11.704;2023-12-07T00:28:40;94658.44;;;3.90;41.39
77366;BME280;66430;50.182;11.704;2023-12-07T00:31:06;94662.34;;;3.91;41.30
77366;BME280;66430;50.182;11.704;2023-12-07T00:33:31;94661.61;;;3.98;41.69
77366;BME280;66430;50.182;11.704;2023-12-07T00:35:57;94665.13;;;3.60;41.45
77366;BME280;66430;50.182;11.704;2023-12-07T00:38:22;94667.83;;;3.52;41.83
77366;BME280;66430;50.182;11.704;2023-12-07T00:40:48;94666.75;;;3.80;41.63
77366;BME280;66430;50.182;11.704;2023-12-07T00:43:13;94669.40;;;3.23;42.26
77366;BME280;66430;50.182;11.704;2023-12-07T00:45:39;94669.69;;;3.50;41.80
77366;BME280;66430;50.182;11.704;2023-12-07T00:48:05;94666.64;;;3.54;41.88
77366;BME280;66430;50.182;11.704;2023-12-07T00:50:29;94671.51;;;3.37;42.08
77366;BME280;66430;50.182;11.704;2023-12-07T00:52:54;94668.51;;;4.08;41.81
77366;BME280;66430;50.182;11.704;2023-12-07T00:55:20;94676.32;;;3.54;41.94
77366;BME280;66430;50.182;11.704;2023-12-07T00:57:45;94680.18;;;3.80;42.23
77366;BME280;66430;50.182;11.704;2023-12-07T01:00:11;94681.58;;;3.34;42.16
77366;BME280;66430;50.182;11.704;2023-12-07T01:02:35;94683.69;;;3.10;42.36
77366;BME280;66430;50.182;11.704;2023-12-07T01:05:01;94688.28;;;3.01;42.51
77366;BME280;66430;50.182;11.704;2023-12-07T01:07:26;94694.60;;;3.06;42.60
77366;BME280;66430;50.182;11.704;2023-12-07T01:09:51;94696.53;;;3.50;42.56
77366;BME280;66430;50.182;11.704;2023-12-07T01:12:17;94698.01;;;3.41;42.07
77366;BME280;66430;50.182;11.704;2023-12-07T01:14:42;94697.01;;;3.21;42.10
77366;BME280;66430;50.182;11.704;2023-12-07T01:17:07;94699.71;;;3.96;41.59
77366;BME280;66430;50.182;11.704;2023-12-07T01:19:32;94702.11;;;3.68;41.58
77366;BME280;66430;50.182;11.704;2023-12-07T01:21:58;94710.23;;;3.01;42.50
77366;BME280;66430;50.182;11.704;2023-12-07T01:24:23;94713.08;;;3.50;42.68
77366;BME280;66430;50.182;11.704;2023-12-07T01:26:49;94715.58;;;3.45;42.69
77366;BME280;66430;50.182;11.704;2023-12-07T01:29:14;94720.31;;;3.21;42.21
77366;BME280;66430;50.182;11.704;2023-12-07T01:31:40;94724.16;;;3.21;42.21
77366;BME280;66430;50.182;11.704;2023-12-07T01:34:06;94726.05;;;3.38;42.53
77366;BME280;66430;50.182;11.704;2023-12-07T01:36:31;94728.33;;;3.41;42.76
77366;BME280;66430;50.182;11.704;2023-12-07T01:38:56;94729.71;;;3.43;42.14
77366;BME280;66430;50.182;11.704;2023-12-07T01:41:22;94730.50;;;3.43;42.35
77366;BME280;66430;50.182;11.704;2023-12-07T01:43:48;94731.96;;;3.52;42.19
77366;BME280;66430;50.182;11.704;2023-12-07T01:46:14;94733.06;;;3.73;42.52
77366;BME280;66430;50.182;11.704;2023-12-07T01:48:38;94734.94;;;3.31;42.04
77366;BME280;66430;50.182;11.704;2023-12-07T01:51:03;94736.80;;;3.13;42.37
77366;BME280;66430;50.182;11.704;2023-12-07T01:53:29;94738.43;;;3.38;42.51
77366;BME280;66430;50.182;11.704;2023-12-07T01:55:53;94740.63;;;3.06;42.48
77366;BME280;66430;50.182;11.704;2023-12-07T01:58:20;94744.70;;;3.51;42.15
77366;BME280;66430;50.182;11.704;2023-12-07T02:00:46;94744.63;;;3.48;42.27
77366;BME280;66430;50.182;11.704;2023-12-07T02:03:10;94748.19;;;2.89;42.88
77366;BME280;66430;50.182;11.704;2023-12-07T02:05:35;94746.19;;;3.38;42.65
77366;BME280;66430;50.182;11.704;2023-12-07T02:08:00;94748.56;;;3.13;42.59
77366;BME280;66430;50.182;11.704;2023-12-07T02:10:26;94750.78;;;3.16;42.70
77366;BME280;66430;50.182;11.704;2023-12-07T02:12:51;94750.96;;;3.47;42.90
77366;BME280;66430;50.182;11.704;2023-12-07T02:15:17;94751.09;;;3.19;42.74
77366;BME280;66430;50.182;11.704;2023-12-07T02:17:49;94751.26;;;3.18;42.87
77366;BME280;66430;50.182;11.704;2023-12-07T02:20:13;94754.08;;;3.38;42.74
77366;BME280;66430;50.182;11.704;2023-12-07T02:22:36;94752.40;;;3.13;42.76
77366;BME280;66430;50.182;11.704;2023-12-07T02:25:06;94754.71;;;3.29;42.46
77366;BME280;66430;50.182;11.704;2023-12-07T02:27:34;94756.25;;;3.30;42.49
77366;BME280;66430;50.182;11.704;2023-12-07T02:29:49;94755.27;;;3.34;42.71
77366;BME280;66430;50.182;11.704;2023-12-07T02:32:14;94754.75;;;3.11;42.67
77366;BME280;66430;50.182;11.704;2023-12-07T02:34:40;94759.78;;;3.68;42.72
77366;BME280;66430;50.182;11.704;2023-12-07T02:37:05;94762.21;;;3.70;42.65
77366;BME280;66430;50.182;11.704;2023-12-07T02:39:32;94762.84;;;2.94;43.26
77366;BME280;66430;50.182;11.704;2023-12-07T02:41:56;94765.09;;;2.82;42.98
77366;BME280;66430;50.182;11.704;2023-12-07T02:44:21;94763.52;;;3.02;43.20
77366;BME280;66430;50.182;11.704;2023-12-07T02:46:46;94766.56;;;3.39;42.85
77366;BME280;66430;50.182;11.704;2023-12-07T02:49:12;94768.91;;;3.40;42.62
77366;BME280;66430;50.182;11.704;2023-12-07T02:51:37;94769.92;;;2.99;42.56
77366;BME280;66430;50.182;11.704;2023-12-07T02:54:03;94766.42;;;3.40;42.72
77366;BME280;66430;50.182;11.704;2023-12-07T02:56:29;94769.99;;;3.04;43.57
77366;BME280;66430;50.182;11.704;2023-12-07T02:58:54;94772.48;;;3.30;42.99
77366;BME280;66430;50.182;11.704;2023-12-07T03:01:20;94772.90;;;3.17;43.26
77366;BME280;66430;50.182;11.704;2023-12-07T03:03:46;94778.30;;;3.04;42.70
77366;BME280;66430;50.182;11.704;2023-12-07T03:06:11;94781.33;;;2.80;42.74
77366;BME280;66430;50.182;11.704;2023-12-07T03:08:36;94781.11;;;3.07;42.55
77366;BME280;66430;50.182;11.704;2023-12-07T03:11:01;94781.63;;;2.94;42.77
77366;BME280;66430;50.182;11.704;2023-12-07T03:13:26;94784.80;;;2.66;42.99
77366;BME280;66430;50.182;11.704;2023-12-07T03:15:51;94777.72;;;3.34;42.35
77366;BME280;66430;50.182;11.704;2023-12-07T03:18:17;94778.29;;;3.84;41.82
77366;BME280;66430;50.182;11.704;2023-12-07T03:20:43;94777.30;;;3.86;41.16
77366;BME280;66430;50.182;11.704;2023-12-07T03:23:08;94774.24;;;3.26;41.83
77366;BME280;66430;50.182;11.704;2023-12-07T03:25:34;94783.36;;;3.46;41.81
77366;BME280;66430;50.182;11.704;2023-12-07T03:28:00;94780.74;;;3.13;41.95
77366;BME280;66430;50.182;11.704;2023-12-07T03:30:25;94783.65;;;3.52;41.58
77366;BME280;66430;50.182;11.704;2023-12-07T03:32:51;94786.13;;;3.31;42.43
77366;BME280;66430;50.182;11.704;2023-12-07T03:35:17;94792.49;;;3.36;42.03
77366;BME280;66430;50.182;11.704;2023-12-07T03:37:42;94789.65;;;3.61;41.76
77366;BME280;66430;50.182;11.704;2023-12-07T03:40:08;94791.03;;;3.13;42.11
77366;BME280;66430;50.182;11.704;2023-12-07T03:42:32;94793.99;;;3.26;42.23
77366;BME280;66430;50.182;11.704;2023-12-07T03:44:58;94796.08;;;3.21;42.05
77366;BME280;66430;50.182;11.704;2023-12-07T03:47:24;94797.91;;;3.78;41.81
77366;BME280;66430;50.182;11.704;2023-12-07T03:49:49;94799.04;;;3.18;42.27
77366;BME280;66430;50.182;11.704;2023-12-07T03:52:14;94800.20;;;3.49;42.06
77366;BME280;66430;50.182;11.704;2023-12-07T03:54:39;94804.30;;;3.00;42.14
77366;BME280;66430;50.182;11.704;2023-12-07T03:57:05;94806.47;;;2.82;42.41
77366;BME280;66430;50.182;11.704;2023-12-07T03:59:30;94809.29;;;3.13;42.46
77366;BME280;66430;50.182;11.704;2023-12-07T04:01:56;94807.34;;;3.15;42.61
77366;BME280;66430;50.182;11.704;2023-12-07T04:04:21;94809.41;;;3.15;42.68
77366;BME280;66430;50.182;11.704;2023-12-07T04:06:47;94810.98;;;2.91;42.62
77366;BME280;66430;50.182;11.704;2023-12-07T04:09:13;94813.84;;;2.95;42.52
77366;BME280;66430;50.182;11.704;2023-12-07T04:11:38;94816.29;;;3.38;42.31
77366;BME280;66430;50.182;11.704;2023-12-07T04:14:03;94817.68;;;3.48;41.96
77366;BME280;66430;50.182;11.704;2023-12-07T04:16:29;94817.59;;;3.46;41.84
77366;BME280;66430;50.182;11.704;2023-12-07T04:18:54;94815.75;;;3.25;41.86
77366;BME280;66430;50.182;11.704;2023-12-07T04:21:20;94816.06;;;3.27;42.35
77366;BME280;66430;50.182;11.704;2023-12-07T04:23:45;94814.76;;;3.05;42.53
77366;BME280;66430;50.182;11.704;2023-12-07T04:26:11;94818.72;;;3.01;42.64
77366;BME280;66430;50.182;11.704;2023-12-07T04:28:36;94821.68;;;2.42;42.70
77366;BME280;66430;50.182;11.704;2023-12-07T04:31:02;94820.82;;;2.66;42.45
77366;BME280;66430;50.182;11.704;2023-12-07T04:33:26;94821.02;;;3.45;41.63
77366;BME280;66430;50.182;11.704;2023-12-07T04:35:52;94823.31;;;3.32;41.97
77366;BME280;66430;50.182;11.704;2023-12-07T04:38:17;94826.23;;;3.17;42.19
77366;BME280;66430;50.182;11.704;2023-12-07T04:40:43;94827.44;;;3.79;41.47
77366;BME280;66430;50.182;11.704;2023-12-07T04:43:08;94831.12;;;3.15;41.32
77366;BME280;66430;50.182;11.704;2023-12-07T04:45:34;94830.80;;;3.95;40.63
77366;BME280;66430;50.182;11.704;2023-12-07T04:47:59;94830.87;;;3.98;40.56
77366;BME280;66430;50.182;11.704;2023-12-07T04:50:24;94832.96;;;3.98;40.56
77366;BME280;66430;50.182;11.704;2023-12-07T04:52:50;94832.46;;;4.11;39.81
77366;BME280;66430;50.182;11.704;2023-12-07T04:55:15;94835.06;;;4.40;39.52
77366;BME280;66430;50.182;11.704;2023-12-07T04:57:40;94835.30;;;4.26;39.66
77366;BME280;66430;50.182;11.704;2023-12-07T05:00:07;94835.15;;;4.50;39.49
77366;BME280;66430;50.182;11.704;2023-12-07T05:02:31;94838.17;;;4.23;39.75
77366;BME280;66430;50.182;11.704;2023-12-07T05:04:56;94837.95;;;4.16;39.42
77366;BME280;66430;50.182;11.704;2023-12-07T05:07:21;94835.18;;;4.12;39.74
77366;BME280;66430;50.182;11.704;2023-12-07T05:09:47;94837.84;;;4.27;39.64
77366;BME280;66430;50.182;11.704;2023-12-07T05:12:12;94839.23;;;4.31;39.87
77366;BME280;66430;50.182;11.704;2023-12-07T05:14:37;94840.59;;;4.08;39.63
77366;BME280;66430;50.182;11.704;2023-12-07T05:17:02;94838.57;;;4.30;39.50
77366;BME280;66430;50.182;11.704;2023-12-07T05:19:27;94838.82;;;4.11;39.69
77366;BME280;66430;50.182;11.704;2023-12-07T05:21:53;94844.25;;;3.94;39.78
77366;BME280;66430;50.182;11.704;2023-12-07T05:24:18;94844.57;;;3.70;40.28
77366;BME280;66430;50.182;11.704;2023-12-07T05:26:44;94846.53;;;4.12;40.40
77366;BME280;66430;50.182;11.704;2023-12-07T05:29:09;94849.79;;;4.08;39.88
77366;BME280;66430;50.182;11.704;2023-12-07T05:31:35;94851.49;;;3.82;39.89
77366;BME280;66430;50.182;11.704;2023-12-07T05:34:00;94853.47;;;3.90;40.05
77366;BME280;66430;50.182;11.704;2023-12-07T05:36:25;94855.39;;;4.20;39.54
77366;BME280;66430;50.182;11.704;2023-12-07T05:38:50;94856.87;;;4.39;39.72
77366;BME280;66430;50.182;11.704;2023-12-07T05:41:18;94853.65;;;3.51;40.58
77366;BME280;66430;50.182;11.704;2023-12-07T05:43:42;94855.15;;;3.41;40.97
77366;BME280;66430;50.182;11.704;2023-12-07T05:46:07;94854.33;;;3.37;40.81
77366;BME280;66430;50.182;11.704;2023-12-07T05:48:33;94858.43;;;3.94;40.32
77366;BME280;66430;50.182;11.704;2023-12-07T05:50:59;94858.96;;;3.88;40.31
77366;BME280;66430;50.182;11.704;2023-12-07T05:53:24;94858.71;;;4.31;40.13
77366;BME280;66430;50.182;11.704;2023-12-07T05:55:49;94858.96;;;4.11;40.06
77366;BME280;66430;50.182;11.704;2023-12-07T05:58:15;94861.28;;;3.70;40.65
77366;BME280;66430;50.182;11.704;2023-12-07T06:00:41;94863.07;;;3.64;40.47
77366;BME280;66430;50.182;11.704;2023-12-07T06:03:07;94858.38;;;2.92;41.72
77366;BME280;66430;50.182;11.704;2023-12-07T06:05:32;94863.89;;;3.55;40.99
77366;BME280;66430;50.182;11.704;2023-12-07T06:07:57;94860.85;;;3.04;41.67
77366;BME280;66430;50.182;11.704;2023-12-07T06:10:23;94865.46;;;3.67;41.18
77366;BME280;66430;50.182;11.704;2023-12-07T06:12:48;94866.91;;;3.72;40.80
77366;BME280;66430;50.182;11.704;2023-12-07T06:15:14;94865.81;;;3.98;40.81
77366;BME280;66430;50.182;11.704;2023-12-07T06:17:40;94863.73;;;3.15;41.27
77366;BME280;66430;50.182;11.704;2023-12-07T06:20:07;94865.06;;;4.07;40.47
77366;BME280;66430;50.182;11.704;2023-12-07T06:22:30;94861.27;;;3.47;40.76
77366;BME280;66430;50.182;11.704;2023-12-07T06:24:56;94863.86;;;3.80;40.48
77366;BME280;66430;50.182;11.704;2023-12-07T06:27:21;94867.41;;;3.68;40.92
77366;BME280;66430;50.182;11.704;2023-12-07T06:29:46;94866.60;;;4.46;40.40
77366;BME280;66430;50.182;11.704;2023-12-07T06:32:11;94870.54;;;4.06;39.83
77366;BME280;66430;50.182;11.704;2023-12-07T06:34:40;94876.10;;;4.21;39.38
77366;BME280;66430;50.182;11.704;2023-12-07T06:37:02;94879.19;;;4.19;39.50
77366;BME280;66430;50.182;11.704;2023-12-07T06:39:27;94880.25;;;4.17;39.76
77366;BME280;66430;50.182;11.704;2023-12-07T06:41:53;94873.49;;;4.49;39.21
77366;BME280;66430;50.182;11.704;2023-12-07T06:44:19;94872.61;;;4.54;38.61
77366;BME280;66430;50.182;11.704;2023-12-07T06:46:44;94876.45;;;4.12;39.14
77366;BME280;66430;50.182;11.704;2023-12-07T06:49:10;94877.19;;;4.01;39.54
77366;BME280;66430;50.182;11.704;2023-12-07T06:51:35;94877.90;;;4.60;39.51
77366;BME280;66430;50.182;11.704;2023-12-07T06:54:01;94879.44;;;3.53;40.23
77366;BME280;66430;50.182;11.704;2023-12-07T06:56:26;94883.30;;;4.00;40.01
77366;BME280;66430;50.182;11.704;2023-12-07T06:58:51;94884.61;;;4.08;39.50
77366;BME280;66430;50.182;11.704;2023-12-07T07:01:17;94886.17;;;4.44;39.29
77366;BME280;66430;50.182;11.704;2023-12-07T07:03:42;94889.34;;;4.43;39.01
77366;BME280;66430;50.182;11.704;2023-12-07T07:06:08;94892.73;;;4.12;39.30
77366;BME280;66430;50.182;11.704;2023-12-07T07:08:33;94895.40;;;4.33;39.82
77366;BME280;66430;50.182;11.704;2023-12-07T07:10:58;94895.38;;;4.33;39.40
77366;BME280;66430;50.182;11.704;2023-12-07T07:13:24;94892.89;;;4.79;39.16
77366;BME280;66430;50.182;11.704;2023-12-07T07:15:50;94895.69;;;4.39;39.15
77366;BME280;66430;50.182;11.704;2023-12-07T07:18:15;94899.78;;;4.29;39.62
77366;BME280;66430;50.182;11.704;2023-12-07T07:20:41;94901.87;;;4.19;39.42
77366;BME280;66430;50.182;11.704;2023-12-07T07:23:07;94901.07;;;4.44;39.21
77366;BME280;66430;50.182;11.704;2023-12-07T07:25:32;94904.08;;;4.44;39.35
77366;BME280;66430;50.182;11.704;2023-12-07T07:27:57;94901.55;;;4.75;39.20
77366;BME280;66430;50.182;11.704;2023-12-07T07:30:22;94902.74;;;4.87;39.17
77366;BME280;66430;50.182;11.704;2023-12-07T07:32:47;94905.40;;;4.71;38.75
77366;BME280;66430;50.182;11.704;2023-12-07T07:35:13;94908.73;;;4.52;39.36
77366;BME280;66430;50.182;11.704;2023-12-07T07:37:39;94909.63;;;4.30;39.17
77366;BME280;66430;50.182;11.704;2023-12-07T07:40:05;94915.44;;;4.18;39.30
77366;BME280;66430;50.182;11.704;2023-12-07T07:42:30;94913.84;;;4.67;39.11
77366;BME280;66430;50.182;11.704;2023-12-07T07:44:55;94916.43;;;4.91;38.88
77366;BME280;66430;50.182;11.704;2023-12-07T07:47:20;94918.15;;;4.86;38.83
77366;BME280;66430;50.182;11.704;2023-12-07T07:49:46;94918.45;;;4.84;38.53
77366;BME280;66430;50.182;11.704;2023-12-07T07:52:11;94916.26;;;4.97;38.73
77366;BME280;66430;50.182;11.704;2023-12-07T07:54:37;94914.77;;;5.13;38.20
77366;BME280;66430;50.182;11.704;2023-12-07T07:57:02;94917.70;;;5.40;37.98
77366;BME280;66430;50.182;11.704;2023-12-07T07:59:28;94916.68;;;5.50;38.09
77366;BME280;66430;50.182;11.704;2023-12-07T08:01:53;94923.23;;;5.05;37.81
77366;BME280;66430;50.182;11.704;2023-12-07T08:04:19;94920.54;;;5.19;38.26
77366;BME280;66430;50.182;11.704;2023-12-07T08:06:44;94922.99;;;5.03;38.64
77366;BME280;66430;50.182;11.704;2023-12-07T08:09:10;94924.35;;;4.88;38.19
77366;BME280;66430;50.182;11.704;2023-12-07T08:11:36;94927.71;;;5.12;37.99
77366;BME280;66430;50.182;11.704;2023-12-07T08:14:01;94931.16;;;4.98;38.17
77366;BME280;66430;50.182;11.704;2023-12-07T08:16:27;94928.80;;;4.89;38.71
77366;BME280;66430;50.182;11.704;2023-12-07T08:18:53;94932.62;;;5.20;38.20
77366;BME280;66430;50.182;11.704;2023-12-07T08:21:20;94934.82;;;5.40;37.96
77366;BME280;66430;50.182;11.704;2023-12-07T08:23:44;94937.04;;;5.26;37.96
77366;BME280;66430;50.182;11.704;2023-12-07T08:26:09;94936.86;;;4.59;39.22
77366;BME280;66430;50.182;11.704;2023-12-07T08:28:35;94935.26;;;5.12;38.57
77366;BME280;66430;50.182;11.704;2023-12-07T08:31:00;94936.39;;;5.21;38.53
77366;BME280;66430;50.182;11.704;2023-12-07T08:33:26;94933.46;;;4.38;38.84
77366;BME280;66430;50.182;11.704;2023-12-07T08:35:51;94929.84;;;5.32;38.09
77366;BME280;66430;50.182;11.704;2023-12-07T08:38:17;94932.36;;;5.05;38.23
77366;BME280;66430;50.182;11.704;2023-12-07T08:40:43;94934.75;;;4.99;38.77
77366;BME280;66430;50.182;11.704;2023-12-07T08:43:08;94941.21;;;4.79;38.60
77366;BME280;66430;50.182;11.704;2023-12-07T08:45:34;94944.95;;;5.29;38.48
77366;BME280;66430;50.182;11.704;2023-12-07T08:47:58;94940.72;;;5.25;38.55
77366;BME280;66430;50.182;11.704;2023-12-07T08:50:23;94939.94;;;5.45;38.00
77366;BME280;66430;50.182;11.704;2023-12-07T08:52:49;94943.74;;;5.15;38.06
77366;BME280;66430;50.182;11.704;2023-12-07T08:55:15;94940.63;;;5.26;37.90
77366;BME280;66430;50.182;11.704;2023-12-07T08:57:40;94941.38;;;4.71;38.23
77366;BME280;66430;50.182;11.704;2023-12-07T09:00:07;94947.30;;;5.34;38.04
77366;BME280;66430;50.182;11.704;2023-12-07T09:02:31;94945.77;;;5.16;38.23
77366;BME280;66430;50.182;11.704;2023-12-07T09:04:56;94946.76;;;5.04;38.23
77366;BME280;66430;50.182;11.704;2023-12-07T09:07:21;94950.88;;;4.98;39.10
77366;BME280;66430;50.182;11.704;2023-12-07T09:09:47;94949.84;;;4.61;39.85
77366;BME280;66430;50.182;11.704;2023-12-07T09:12:12;94953.83;;;4.96;38.66
77366;BME280;66430;50.182;11.704;2023-12-07T09:14:40;94956.07;;;5.13;38.42
77366;BME280;66430;50.182;11.704;2023-12-07T09:17:03;94953.17;;;5.29;38.17
77366;BME280;66430;50.182;11.704;2023-12-07T09:19:28;94948.47;;;5.32;38.51
77366;BME280;66430;50.182;11.704;2023-12-07T09:21:53;94947.83;;;5.13;38.39
77366;BME280;66430;50.182;11.704;2023-12-07T09:24:19;94946.86;;;5.44;37.80
77366;BME280;66430;50.182;11.704;2023-12-07T09:26:44;94947.82;;;5.15;37.89
77366;BME280;66430;50.182;11.704;2023-12-07T09:29:10;94950.90;;;5.38;37.99
77366;BME280;66430;50.182;11.704;2023-12-07T09:31:35;94957.06;;;5.56;37.81
77366;BME280;66430;50.182;11.704;2023-12-07T09:34:00;94960.14;;;5.52;37.71
77366;BME280;66430;50.182;11.704;2023-12-07T09:36:26;94962.03;;;5.29;37.54
77366;BME280;66430;50.182;11.704;2023-12-07T09:38:51;94958.00;;;5.55;37.44
77366;BME280;66430;50.182;11.704;2023-12-07T09:41:17;94958.66;;;5.45;37.90
77366;BME280;66430;50.182;11.704;2023-12-07T09:43:42;94962.55;;;5.03;37.98
77366;BME280;66430;50.182;11.704;2023-12-07T09:46:08;94957.74;;;5.51;38.14
77366;BME280;66430;50.182;11.704;2023-12-07T09:48:33;94957.71;;;5.50;37.43
77366;BME280;66430;50.182;11.704;2023-12-07T09:51:00;94956.90;;;5.25;37.29
77366;BME280;66430;50.182;11.704;2023-12-07T09:53:24;94955.24;;;5.57;37.71
77366;BME280;66430;50.182;11.704;2023-12-07T09:55:49;94952.29;;;5.71;37.43
77366;BME280;66430;50.182;11.704;2023-12-07T09:58:15;94949.95;;;5.85;37.13
77366;BME280;66430;50.182;11.704;2023-12-07T10:00:40;94948.51;;;6.04;36.75
77366;BME280;66430;50.182;11.704;2023-12-07T10:03:07;94946.97;;;6.13;36.72
77366;BME280;66430;50.182;11.704;2023-12-07T10:05:31;94941.53;;;5.98;36.53
77366;BME280;66430;50.182;11.704;2023-12-07T10:07:56;94946.20;;;5.43;37.37
77366;BME280;66430;50.182;11.704;2023-12-07T10:10:21;94941.24;;;6.28;37.23
77366;BME280;66430;50.182;11.704;2023-12-07T10:12:50;94939.35;;;6.04;36.78
77366;BME280;66430;50.182;11.704;2023-12-07T10:15:13;94933.42;;;6.26;36.61
77366;BME280;66430;50.182;11.704;2023-12-07T10:17:45;94930.12;;;5.53;36.30
77366;BME280;66430;50.182;11.704;2023-12-07T10:20:09;94926.67;;;6.15;36.55
77366;BME280;66430;50.182;11.704;2023-12-07T10:22:29;94927.91;;;5.95;36.10
77366;BME280;66430;50.182;11.704;2023-12-07T10:24:55;94932.79;;;6.21;36.42
77366;BME280;66430;50.182;11.704;2023-12-07T10:27:21;94932.85;;;6.17;36.66
77366;BME280;66430;50.182;11.704;2023-12-07T10:29:46;94931.44;;;6.50;36.08
77366;BME280;66430;50.182;11.704;2023-12-07T10:32:12;94931.18;;;6.70;35.79
77366;BME280;66430;50.182;11.704;2023-12-07T10:34:37;94931.57;;;6.90;35.60
77366;BME280;66430;50.182;11.704;2023-12-07T10:37:02;94928.57;;;6.65;36.25
77366;BME280;66430;50.182;11.704;2023-12-07T10:39:27;94930.49;;;6.42;35.61
77366;BME280;66430;50.182;11.704;2023-12-07T10:41:57;94928.02;;;5.56;36.49
77366;BME280;66430;50.182;11.704;2023-12-07T10:44:18;94924.29;;;6.52;36.25
77366;BME280;66430;50.182;11.704;2023-12-07T10:46:43;94924.34;;;6.16;36.18
77366;BME280;66430;50.182;11.704;2023-12-07T10:49:13;94925.98;;;5.08;35.72
77366;BME280;66430;50.182;11.704;2023-12-07T10:51:38;94929.02;;;6.54;35.20
77366;BME280;66430;50.182;11.704;2023-12-07T10:54:01;94928.06;;;6.25;35.50
77366;BME280;66430;50.182;11.704;2023-12-07T10:56:32;94929.42;;;5.65;36.46
77366;BME280;66430;50.182;11.704;2023-12-07T10:58:50;94925.95;;;6.26;36.40
77366;BME280;66430;50.182;11.704;2023-12-07T11:01:16;94923.11;;;6.50;35.88
77366;BME280;66430;50.182;11.704;2023-12-07T11:03:42;94924.03;;;6.32;35.79
77366;BME280;66430;50.182;11.704;2023-12-07T11:06:07;94926.74;;;6.77;35.78
77366;BME280;66430;50.182;11.704;2023-12-07T11:08:36;94919.87;;;6.46;35.76
77366;BME280;66430;50.182;11.704;2023-12-07T11:11:03;94918.70;;;6.62;35.20
77366;BME280;66430;50.182;11.704;2023-12-07T11:13:27;94920.67;;;6.37;35.46
77366;BME280;66430;50.182;11.704;2023-12-07T11:15:48;94922.47;;;6.29;35.61
77366;BME280;66430;50.182;11.704;2023-12-07T11:18:13;94925.66;;;6.68;35.22
77366;BME280;66430;50.182;11.704;2023-12-07T11:20:42;94923.36;;;6.80;34.69
77366;BME280;66430;50.182;11.704;2023-12-07T11:23:04;94919.96;;;6.72;34.97
77366;BME280;66430;50.182;11.704;2023-12-07T11:25:29;94913.73;;;6.58;34.60
77366;BME280;66430;50.182;11.704;2023-12-07T11:28:00;94915.09;;;6.57;34.93
77366;BME280;66430;50.182;11.704;2023-12-07T11:30:20;94917.23;;;6.57;34.94
77366;BME280;66430;50.182;11.704;2023-12-07T11:32:45;94917.86;;;6.51;35.24
77366;BME280;66430;50.182;11.704;2023-12-07T11:35:14;94916.58;;;6.22;35.53
77366;BME280;66430;50.182;11.704;2023-12-07T11:40:02;94912.57;;;6.47;35.47
77366;BME280;66430;50.182;11.704;2023-12-07T11:42:28;94910.48;;;6.76;35.05
77366;BME280;66430;50.182;11.704;2023-12-07T11:47:20;94902.22;;;7.07;33.75
77366;BME280;66430;50.182;11.704;2023-12-07T11:49:44;94899.09;;;6.85;34.30
77366;BME280;66430;50.182;11.704;2023-12-07T11:52:15;94899.06;;;7.13;34.18
77366;BME280;66430;50.182;11.704;2023-12-07T11:54:35;94898.76;;;6.87;33.96
77366;BME280;66430;50.182;11.704;2023-12-07T11:57:01;94894.14;;;7.01;34.62
77366;BME280;66430;50.182;11.704;2023-12-07T11:59:27;94891.95;;;7.14;34.46
77366;BME280;66430;50.182;11.704;2023-12-07T12:01:53;94892.82;;;7.18;34.11
77366;BME280;66430;50.182;11.704;2023-12-07T12:04:18;94890.61;;;7.27;34.23
77366;BME280;66430;50.182;11.704;2023-12-07T12:06:44;94886.95;;;7.43;34.09
77366;BME280;66430;50.182;11.704;2023-12-07T12:09:09;94881.61;;;6.89;34.12
77366;BME280;66430;50.182;11.704;2023-12-07T12:11:34;94871.97;;;7.49;34.04
77366;BME280;66430;50.182;11.704;2023-12-07T12:13:59;94865.83;;;7.35;33.65
77366;BME280;66430;50.182;11.704;2023-12-07T12:16:25;94859.31;;;7.63;33.56
77366;BME280;66430;50.182;11.704;2023-12-07T12:18:50;94854.82;;;7.14;33.65
77366;BME280;66430;50.182;11.704;2023-12-07T12:21:16;94852.14;;;7.26;33.58
77366;BME280;66430;50.182;11.704;2023-12-07T12:23:40;94852.55;;;7.08;33.62
77366;BME280;66430;50.182;11.704;2023-12-07T12:26:07;94849.51;;;7.30;33.70
77366;BME280;66430;50.182;11.704;2023-12-07T12:28:31;94852.54;;;7.29;33.33
77366;BME280;66430;50.182;11.704;2023-12-07T12:30:57;94853.39;;;7.49;33.73
77366;BME280;66430;50.182;11.704;2023-12-07T12:33:22;94849.81;;;7.49;33.60
77366;BME280;66430;50.182;11.704;2023-12-07T12:35:47;94852.06;;;7.61;33.26
77366;BME280;66430;50.182;11.704;2023-12-07T12:38:12;94854.67;;;7.65;33.60
77366;BME280;66430;50.182;11.704;2023-12-07T12:40:38;94853.28;;;7.76;33.52
77366;BME280;66430;50.182;11.704;2023-12-07T12:43:03;94850.36;;;7.57;33.33
77366;BME280;66430;50.182;11.704;2023-12-07T12:45:28;94850.28;;;7.37;33.44
77366;BME280;66430;50.182;11.704;2023-12-07T12:47:53;94848.33;;;7.85;33.05
77366;BME280;66430;50.182;11.704;2023-12-07T12:50:34;94845.75;;;7.77;33.18
77366;BME280;66430;50.182;11.704;2023-12-07T12:52:44;94847.87;;;7.68;33.17
77366;BME280;66430;50.182;11.704;2023-12-07T12:55:10;94849.01;;;8.08;33.00